createdAt,value
2023-05-13T00:01:05.110Z,5.23
2023-05-13T00:03:32.401Z,5.50
2023-05-13T00:06:00.480Z,5.07
2023-05-13T00:08:27.007Z,6.70
2023-05-13T00:10:53.463Z,4.77
2023-05-13T00:13:19.982Z,5.90
2023-05-13T00:15:46.412Z,6.40
2023-05-13T00:18:12.869Z,7.90
2023-05-13T00:20:40.973Z,7.73
2023-05-13T00:23:07.866Z,9.17
2023-05-13T00:25:34.792Z,6.97
2023-05-13T00:28:01.215Z,4.93
2023-05-13T00:30:27.935Z,6.00
2023-05-13T00:32:54.444Z,7.17
2023-05-13T00:35:21.051Z,7.60
2023-05-13T00:37:47.490Z,7.70
2023-05-13T00:40:22.152Z,9.13
2023-05-13T00:42:49.683Z,7.10
2023-05-13T00:45:16.568Z,6.63
2023-05-13T00:47:43.736Z,8.60
2023-05-13T00:50:11.390Z,6.80
2023-05-13T00:52:39.945Z,8.40
2023-05-13T00:55:07.643Z,6.17
2023-05-13T00:57:35.134Z,9.50
2023-05-13T01:00:03.524Z,7.60
2023-05-13T01:02:52.802Z,9.13
2023-05-13T01:05:30.908Z,11.07
2023-05-13T01:08:06.708Z,11.30
2023-05-13T01:11:08.186Z,11.90
2023-05-13T01:13:43.023Z,9.47
2023-05-13T01:16:21.414Z,12.63
2023-05-13T01:18:56.623Z,13.07
2023-05-13T01:21:29.248Z,11.90
2023-05-13T01:23:56.140Z,14.57
2023-05-13T01:26:24.158Z,12.43
2023-05-13T01:28:50.995Z,12.20
2023-05-13T01:31:19.104Z,11.43
2023-05-13T01:33:46.818Z,12.03
2023-05-13T01:36:14.921Z,15.80
2023-05-13T01:38:42.741Z,13.03
2023-05-13T01:41:09.336Z,14.47
2023-05-13T01:43:36.527Z,13.90
2023-05-13T01:46:03.220Z,12.93
2023-05-13T01:48:29.726Z,14.13
2023-05-13T01:50:57.926Z,15.97
2023-05-13T01:53:24.405Z,16.47
2023-05-13T01:55:52.850Z,15.47
2023-05-13T01:58:20.726Z,14.37
2023-05-13T02:00:47.224Z,13.10
2023-05-13T02:03:13.723Z,12.40
2023-05-13T02:05:40.376Z,15.60
2023-05-13T02:08:08.244Z,13.90
2023-05-13T02:10:34.792Z,16.57
2023-05-13T02:13:01.282Z,20.27
2023-05-13T02:15:27.859Z,15.03
2023-05-13T02:17:54.417Z,15.07
2023-05-13T02:20:21.234Z,18.27
2023-05-13T02:22:47.884Z,22.03
2023-05-13T02:25:14.335Z,16.07
2023-05-13T02:27:40.828Z,20.20
2023-05-13T02:30:07.885Z,17.67
2023-05-13T02:32:34.417Z,15.27
2023-05-13T02:35:00.910Z,17.80
2023-05-13T02:37:27.552Z,20.50
2023-05-13T02:40:00.921Z,17.53
2023-05-13T02:42:27.712Z,19.70
2023-05-13T02:44:54.897Z,17.20
2023-05-13T02:47:22.626Z,18.67
2023-05-13T02:49:49.650Z,18.30
2023-05-13T02:52:16.168Z,18.93
2023-05-13T02:54:42.706Z,24.30
2023-05-13T02:57:09.313Z,24.90
2023-05-13T02:59:35.849Z,22.07
2023-05-13T03:02:02.399Z,22.77
2023-05-13T03:04:28.955Z,18.77
2023-05-13T03:06:55.704Z,16.73
2023-05-13T03:09:22.228Z,19.90
2023-05-13T03:11:49.045Z,21.97
2023-05-13T03:14:15.580Z,18.57
2023-05-13T03:16:42.137Z,17.63
2023-05-13T03:19:08.778Z,18.30
2023-05-13T03:21:35.406Z,25.77
2023-05-13T03:24:02.515Z,21.23
2023-05-13T03:26:29.732Z,20.40
2023-05-13T03:28:56.697Z,18.23
2023-05-13T03:31:23.581Z,21.67
2023-05-13T03:33:50.228Z,21.20
2023-05-13T03:36:16.709Z,18.50
2023-05-13T03:38:43.163Z,20.00
2023-05-13T03:41:09.811Z,25.57
2023-05-13T03:43:36.322Z,18.30
2023-05-13T03:46:07.465Z,21.63
2023-05-13T03:48:34.237Z,22.87
2023-05-13T03:51:02.242Z,18.50
2023-05-13T03:53:29.352Z,20.33
2023-05-13T03:55:55.839Z,21.47
2023-05-13T03:58:22.784Z,18.20
2023-05-13T04:00:49.533Z,20.27
2023-05-13T04:03:17.529Z,18.47
2023-05-13T04:05:46.141Z,17.57
2023-05-13T04:08:12.906Z,20.00
2023-05-13T04:10:39.837Z,30.57
2023-05-13T04:13:07.046Z,19.87
2023-05-13T04:15:33.680Z,22.30
2023-05-13T04:18:00.441Z,19.73
2023-05-13T04:20:29.030Z,23.03
2023-05-13T04:22:55.542Z,23.67
2023-05-13T04:25:22.094Z,24.07
2023-05-13T04:27:48.637Z,22.87
2023-05-13T04:30:23.081Z,21.63
2023-05-13T04:32:49.795Z,22.07
2023-05-13T04:35:16.641Z,22.20
2023-05-13T04:37:46.097Z,29.00
2023-05-13T04:40:15.434Z,28.67
2023-05-13T04:42:42.306Z,26.03
2023-05-13T04:45:09.507Z,25.87
2023-05-13T04:47:38.050Z,28.33
2023-05-13T04:50:05.662Z,29.33
2023-05-13T04:52:32.887Z,26.00
2023-05-13T04:54:59.565Z,29.87
2023-05-13T04:57:27.112Z,25.43
2023-05-13T04:59:53.556Z,32.57
2023-05-13T05:02:20.043Z,31.07
2023-05-13T05:04:49.269Z,29.10
2023-05-13T05:07:15.955Z,26.80
2023-05-13T05:09:42.503Z,29.43
2023-05-13T05:12:09.666Z,24.03
2023-05-13T05:14:39.536Z,23.17
2023-05-13T05:17:07.142Z,27.77
2023-05-13T05:19:34.238Z,23.47
2023-05-13T05:22:00.838Z,27.40
2023-05-13T05:24:27.364Z,25.53
2023-05-13T05:26:53.806Z,29.43
2023-05-13T05:29:20.990Z,24.23
2023-05-13T05:31:47.664Z,27.53
2023-05-13T05:34:14.624Z,21.93
2023-05-13T05:36:42.955Z,27.93
2023-05-13T05:39:10.970Z,28.10
2023-05-13T05:41:37.516Z,22.73
2023-05-13T05:44:04.261Z,22.40
2023-05-13T05:46:32.116Z,21.57
2023-05-13T05:48:59.555Z,22.77
2023-05-13T05:51:26.077Z,23.37
2023-05-13T05:53:52.631Z,20.97
2023-05-13T05:56:19.750Z,22.47
2023-05-13T05:58:46.259Z,21.30
2023-05-13T06:01:12.791Z,19.60
2023-05-13T06:03:39.368Z,19.93
2023-05-13T06:06:06.020Z,19.13
2023-05-13T06:08:33.454Z,18.93
2023-05-13T06:11:01.160Z,19.30
2023-05-13T06:13:27.879Z,20.57
2023-05-13T06:15:54.967Z,20.17
2023-05-13T06:18:21.580Z,16.73
2023-05-13T06:20:48.091Z,18.87
2023-05-13T06:23:14.966Z,18.97
2023-05-13T06:25:41.881Z,16.77
2023-05-13T06:28:10.575Z,21.13
2023-05-13T06:30:38.021Z,15.87
2023-05-13T06:33:04.917Z,17.43
2023-05-13T06:35:31.622Z,14.97
2023-05-13T06:37:59.846Z,17.60
2023-05-13T06:40:26.993Z,12.63
2023-05-13T06:42:54.555Z,12.83
2023-05-13T06:45:28.060Z,14.90
2023-05-13T06:47:54.791Z,15.70
2023-05-13T06:50:21.604Z,12.30
2023-05-13T06:52:48.338Z,13.80
2023-05-13T06:55:16.575Z,13.87
2023-05-13T06:57:46.646Z,14.60
2023-05-13T07:00:17.708Z,19.97
2023-05-13T07:02:44.161Z,21.50
2023-05-13T07:05:11.723Z,19.13
2023-05-13T07:07:38.376Z,19.83
2023-05-13T07:10:05.307Z,22.00
2023-05-13T07:12:32.629Z,17.60
2023-05-13T07:14:59.182Z,17.80
2023-05-13T07:17:25.717Z,17.83
2023-05-13T07:19:52.358Z,20.23
2023-05-13T07:22:19.010Z,19.40
2023-05-13T07:24:45.518Z,16.30
2023-05-13T07:27:11.968Z,20.47
2023-05-13T07:29:38.622Z,18.40
2023-05-13T07:32:06.210Z,19.10
2023-05-13T07:34:32.726Z,17.60
2023-05-13T07:36:59.405Z,16.97
2023-05-13T07:39:26.681Z,18.47
2023-05-13T07:41:53.654Z,17.40
2023-05-13T07:44:20.196Z,20.10
2023-05-13T07:46:48.464Z,20.03
2023-05-13T07:49:15.002Z,19.33
2023-05-13T07:51:41.954Z,18.20
2023-05-13T07:54:09.249Z,17.77
2023-05-13T07:56:35.889Z,21.50
2023-05-13T07:59:02.355Z,19.23
2023-05-13T08:01:29.067Z,19.17
2023-05-13T08:03:56.296Z,16.83
2023-05-13T08:06:23.150Z,19.57
2023-05-13T08:08:49.590Z,13.90
2023-05-13T08:11:16.060Z,16.73
2023-05-13T08:13:42.513Z,19.10
2023-05-13T08:16:09.092Z,15.63
2023-05-13T08:18:35.609Z,16.70
2023-05-13T08:21:02.084Z,17.40
2023-05-13T08:23:43.350Z,19.00
2023-05-13T08:26:11.864Z,14.17
2023-05-13T08:28:38.693Z,14.10
2023-05-13T08:31:05.252Z,12.37
2023-05-13T08:33:32.430Z,12.83
2023-05-13T08:36:00.814Z,18.03
2023-05-13T08:38:27.297Z,12.20
2023-05-13T08:40:53.936Z,11.83
2023-05-13T08:43:23.575Z,11.10
2023-05-13T08:45:53.359Z,13.20
2023-05-13T08:48:20.552Z,14.80
2023-05-13T08:50:47.326Z,16.70
2023-05-13T08:53:16.447Z,14.60
2023-05-13T08:55:42.872Z,15.37
2023-05-13T08:58:09.356Z,13.93
2023-05-13T09:00:36.144Z,15.63
2023-05-13T09:03:02.932Z,12.87
2023-05-13T09:05:29.590Z,12.90
2023-05-13T09:07:57.208Z,12.70
2023-05-13T09:10:23.927Z,10.30
2023-05-13T09:12:55.070Z,9.77
2023-05-13T09:15:24.330Z,13.03
2023-05-13T09:17:55.013Z,10.37
2023-05-13T09:20:22.608Z,10.87
2023-05-13T09:22:57.396Z,12.07
2023-05-13T09:25:25.271Z,10.27
2023-05-13T09:28:00.243Z,13.40
2023-05-13T09:30:33.000Z,14.03
2023-05-13T09:33:17.374Z,12.43
2023-05-13T09:35:44.826Z,13.83
2023-05-13T09:38:24.680Z,10.27
2023-05-13T09:40:52.173Z,10.57
2023-05-13T09:43:23.354Z,13.07
2023-05-13T09:45:57.961Z,12.13
2023-05-13T09:48:28.393Z,12.47
2023-05-13T09:50:57.724Z,11.10
2023-05-13T09:53:25.481Z,10.40
2023-05-13T09:55:53.666Z,12.30
2023-05-13T09:58:20.758Z,10.33
2023-05-13T10:00:48.114Z,11.27
2023-05-13T10:03:15.188Z,11.77
2023-05-13T10:05:42.680Z,11.90
2023-05-13T10:08:11.871Z,10.30
2023-05-13T10:10:39.028Z,12.30
2023-05-13T10:13:08.750Z,14.07
2023-05-13T10:15:35.464Z,12.53
2023-05-13T10:18:02.517Z,8.03
2023-05-13T10:20:29.607Z,8.93
2023-05-13T10:22:57.136Z,8.70
2023-05-13T10:25:24.188Z,9.83
2023-05-13T10:27:51.180Z,9.23
2023-05-13T10:30:17.861Z,10.77
2023-05-13T10:32:44.536Z,12.47
2023-05-13T10:35:16.730Z,10.13
2023-05-13T10:38:28.159Z,9.40
2023-05-13T10:41:10.170Z,7.97
2023-05-13T10:43:37.396Z,9.00
2023-05-13T10:46:11.424Z,8.30
2023-05-13T10:48:49.679Z,7.07
2023-05-13T10:51:18.416Z,7.53
2023-05-13T10:53:52.021Z,8.00
2023-05-13T10:56:24.256Z,6.57
2023-05-13T10:58:59.304Z,8.27
2023-05-13T11:01:43.035Z,8.47
2023-05-13T11:04:15.062Z,10.80
2023-05-13T11:06:44.411Z,14.40
2023-05-13T11:09:28.984Z,8.13
2023-05-13T11:12:00.286Z,8.03
2023-05-13T11:14:27.916Z,8.10
2023-05-13T11:17:00.552Z,6.70
2023-05-13T11:19:28.297Z,7.43
2023-05-13T11:21:57.364Z,10.17
2023-05-13T11:24:24.823Z,42.80
2023-05-13T11:26:57.389Z,8.37
2023-05-13T11:29:34.995Z,20.20
2023-05-13T11:32:04.318Z,10.03
2023-05-13T11:34:32.508Z,6.53
2023-05-13T11:37:05.210Z,9.20
2023-05-13T11:39:32.927Z,24.90
2023-05-13T11:42:01.837Z,22.63
2023-05-13T11:44:28.700Z,5.63
2023-05-13T11:47:05.733Z,14.73
2023-05-13T11:49:36.877Z,12.17
2023-05-13T11:52:09.315Z,6.30
2023-05-13T11:54:49.334Z,6.93
2023-05-13T11:57:28.758Z,65.23
2023-05-13T12:00:01.263Z,13.50
2023-05-13T12:02:37.609Z,5.00
2023-05-13T12:05:06.338Z,22.90
2023-05-13T12:07:34.926Z,34.60
2023-05-13T12:10:03.787Z,36.70
2023-05-13T12:12:32.770Z,16.83
2023-05-13T12:15:01.369Z,13.53
2023-05-13T12:17:28.209Z,3.67
2023-05-13T12:20:11.278Z,4.00
2023-05-13T12:22:50.782Z,3.90
2023-05-13T12:25:39.875Z,5.93
2023-05-13T12:28:25.618Z,5.63
2023-05-13T12:30:52.063Z,3.27
2023-05-13T12:33:23.677Z,3.13
2023-05-13T12:35:52.817Z,4.40
2023-05-13T12:38:21.243Z,2.53
2023-05-13T12:40:48.931Z,2.83
2023-05-13T12:43:19.666Z,2.80
2023-05-13T12:45:47.942Z,3.10
2023-05-13T12:48:16.552Z,3.17
2023-05-13T12:50:43.092Z,2.83
2023-05-13T12:53:09.563Z,5.20
2023-05-13T12:55:39.845Z,2.40
2023-05-13T12:58:13.077Z,5.70
2023-05-13T13:00:39.818Z,2.90
2023-05-13T13:03:07.483Z,3.30
2023-05-13T13:05:34.488Z,3.00
2023-05-13T13:08:05.549Z,5.27
2023-05-13T13:10:32.506Z,3.30
2023-05-13T13:12:59.003Z,3.10
2023-05-13T13:15:25.779Z,2.73
2023-05-13T13:17:55.371Z,2.53
2023-05-13T13:20:22.400Z,3.17
2023-05-13T13:22:48.913Z,2.63
2023-05-13T13:25:15.533Z,2.90
2023-05-13T13:27:42.054Z,2.30
2023-05-13T13:30:08.843Z,10.90
2023-05-13T13:32:36.001Z,2.83
2023-05-13T13:35:05.398Z,3.90
2023-05-13T13:37:31.933Z,3.90
2023-05-13T13:39:58.519Z,4.10
2023-05-13T13:42:28.680Z,3.43
2023-05-13T13:45:00.225Z,2.80
2023-05-13T13:47:26.780Z,2.90
2023-05-13T13:49:53.237Z,3.67
2023-05-13T13:52:19.769Z,2.87
2023-05-13T13:54:47.310Z,2.57
2023-05-13T13:57:14.892Z,3.93
2023-05-13T13:59:42.054Z,3.13
2023-05-13T14:02:09.412Z,4.13
2023-05-13T14:04:37.191Z,2.43
2023-05-13T14:07:04.235Z,2.80
2023-05-13T14:09:32.685Z,2.50
2023-05-13T14:11:59.260Z,2.97
2023-05-13T14:14:25.956Z,2.40
2023-05-13T14:16:55.259Z,2.77
2023-05-13T14:19:21.783Z,2.37
2023-05-13T14:21:48.313Z,7.07
2023-05-13T14:24:14.769Z,4.07
2023-05-13T14:26:41.363Z,3.27
2023-05-13T14:29:07.901Z,3.43
2023-05-13T14:31:34.488Z,3.00
2023-05-13T14:34:00.990Z,3.17
2023-05-13T14:36:27.568Z,3.53
2023-05-13T14:38:54.406Z,2.63
2023-05-13T14:41:21.633Z,2.30
2023-05-13T14:43:48.957Z,2.53
2023-05-13T14:46:15.556Z,2.13
2023-05-13T14:48:42.040Z,2.77
2023-05-13T14:51:08.682Z,2.87
2023-05-13T14:53:35.329Z,2.20
2023-05-13T14:56:01.816Z,3.40
2023-05-13T14:58:28.504Z,3.40
2023-05-13T15:00:55.136Z,4.43
2023-05-13T15:03:21.838Z,2.80
2023-05-13T15:05:48.564Z,1.90
2023-05-13T15:08:15.642Z,3.70
2023-05-13T15:10:42.171Z,3.13
2023-05-13T15:13:08.927Z,3.00
2023-05-13T15:15:35.576Z,2.30
2023-05-13T15:18:02.227Z,4.97
2023-05-13T15:20:28.811Z,2.73
2023-05-13T15:22:57.705Z,3.17
2023-05-13T15:25:24.280Z,3.53
2023-05-13T15:27:51.364Z,3.23
2023-05-13T15:30:18.018Z,2.90
2023-05-13T15:32:44.570Z,2.87
2023-05-13T15:35:11.107Z,2.87
2023-05-13T15:37:37.623Z,2.33
2023-05-13T15:40:04.757Z,2.70
2023-05-13T15:42:31.259Z,2.23
2023-05-13T15:44:57.739Z,5.80
2023-05-13T15:47:24.419Z,3.50
2023-05-13T15:49:53.415Z,2.50
2023-05-13T15:52:20.448Z,2.27
2023-05-13T15:54:46.928Z,3.07
2023-05-13T15:57:14.777Z,2.37
2023-05-13T15:59:41.239Z,2.27
2023-05-13T16:02:08.360Z,2.70
2023-05-13T16:04:35.080Z,2.90
2023-05-13T16:07:01.802Z,1.90
2023-05-13T16:09:28.274Z,2.90
2023-05-13T16:11:55.363Z,2.90
2023-05-13T16:14:21.840Z,3.00
2023-05-13T16:16:48.484Z,2.23
2023-05-13T16:19:15.106Z,2.00
2023-05-13T16:21:42.391Z,2.60
2023-05-13T16:24:08.981Z,2.23
2023-05-13T16:26:35.501Z,2.10
2023-05-13T16:29:02.082Z,2.20
2023-05-13T16:31:29.684Z,2.80
2023-05-13T16:33:56.509Z,1.70
2023-05-13T16:36:23.286Z,2.70
2023-05-13T16:38:49.993Z,1.70
2023-05-13T16:41:16.627Z,2.33
2023-05-13T16:43:43.182Z,9.03
2023-05-13T16:46:09.725Z,2.03
2023-05-13T16:48:36.743Z,1.50
2023-05-13T16:51:03.750Z,1.70
2023-05-13T16:53:30.891Z,1.60
2023-05-13T16:55:57.495Z,2.33
2023-05-13T16:58:24.067Z,1.87
2023-05-13T17:00:50.914Z,2.07
2023-05-13T17:03:17.941Z,1.40
2023-05-13T17:05:44.726Z,5.60
2023-05-13T17:08:11.254Z,2.83
2023-05-13T17:10:38.135Z,1.50
2023-05-13T17:13:05.700Z,1.30
2023-05-13T17:15:32.172Z,1.50
2023-05-13T17:17:58.651Z,2.07
2023-05-13T17:20:25.489Z,1.83
2023-05-13T17:22:52.059Z,2.40
2023-05-13T17:25:18.589Z,3.37
2023-05-13T17:27:45.030Z,1.50
2023-05-13T17:30:11.993Z,1.20
2023-05-13T17:32:38.627Z,1.90
2023-05-13T17:35:05.677Z,2.07
2023-05-13T17:37:32.359Z,1.20
2023-05-13T17:40:00.853Z,2.17
2023-05-13T17:42:28.932Z,1.87
2023-05-13T17:44:55.514Z,1.90
2023-05-13T17:47:22.124Z,2.33
2023-05-13T17:49:48.554Z,1.30
2023-05-13T17:52:15.040Z,1.87
2023-05-13T17:54:41.534Z,1.53
2023-05-13T17:57:09.936Z,1.97
2023-05-13T18:00:04.737Z,1.30
2023-05-13T18:02:31.543Z,1.77
2023-05-13T18:05:02.536Z,2.30
2023-05-13T18:07:29.041Z,2.17
2023-05-13T18:09:56.018Z,2.90
2023-05-13T18:12:22.489Z,2.87
2023-05-13T18:14:48.996Z,1.90
2023-05-13T18:17:15.553Z,2.30
2023-05-13T18:19:42.008Z,2.90
2023-05-13T18:22:09.516Z,2.03
2023-05-13T18:24:36.050Z,3.50
2023-05-13T18:31:38.115Z,2.47
2023-05-13T18:34:04.661Z,3.30
2023-05-13T18:36:32.666Z,2.43
2023-05-13T18:38:59.267Z,2.03
2023-05-13T18:41:25.824Z,2.17
2023-05-13T18:43:52.280Z,3.33
2023-05-13T18:46:19.647Z,1.57
2023-05-13T18:48:46.387Z,2.13
2023-05-13T18:51:12.920Z,3.60
2023-05-13T18:53:39.402Z,2.23
2023-05-13T18:56:05.929Z,1.80
2023-05-13T18:58:32.470Z,3.17
2023-05-13T19:00:58.956Z,3.40
2023-05-13T19:03:26.844Z,2.57
2023-05-13T19:05:53.533Z,2.00
2023-05-13T19:08:20.055Z,2.60
2023-05-13T19:10:46.499Z,2.60
2023-05-13T19:13:14.568Z,3.03
2023-05-13T19:15:41.024Z,2.57
2023-05-13T19:18:07.525Z,2.73
2023-05-13T19:20:34.033Z,4.27
2023-05-13T19:23:00.705Z,5.03
2023-05-13T19:25:27.192Z,5.30
2023-05-13T19:27:53.717Z,3.40
2023-05-13T19:30:20.685Z,2.20
2023-05-13T19:32:47.319Z,3.93
2023-05-13T19:35:14.089Z,3.03
2023-05-13T19:37:40.687Z,3.10
2023-05-13T19:40:07.682Z,2.93
2023-05-13T19:42:34.157Z,3.53
2023-05-13T19:45:00.613Z,3.00
2023-05-13T19:47:27.209Z,3.20
2023-05-13T19:49:53.847Z,3.30
2023-05-13T19:52:20.786Z,2.67
2023-05-13T19:54:47.279Z,2.63
2023-05-13T19:57:13.801Z,2.07
2023-05-13T19:59:41.676Z,2.80
2023-05-13T20:02:08.774Z,2.90
2023-05-13T20:04:35.420Z,2.70
2023-05-13T20:07:04.504Z,3.53
2023-05-13T20:09:31.208Z,3.77
2023-05-13T20:11:58.051Z,2.67
2023-05-13T20:14:27.827Z,2.60
2023-05-13T20:16:54.599Z,1.50
2023-05-13T20:19:21.210Z,2.20
2023-05-13T20:21:47.812Z,1.47
2023-05-13T20:24:14.252Z,1.87
2023-05-13T20:26:41.815Z,1.30
2023-05-13T20:29:08.439Z,1.40
2023-05-13T20:31:42.267Z,1.40
2023-05-13T20:34:11.754Z,3.27
2023-05-13T20:36:38.724Z,3.30
2023-05-13T20:39:05.335Z,2.73
2023-05-13T20:41:32.739Z,4.10
2023-05-13T20:44:03.191Z,3.00
2023-05-13T20:46:29.724Z,3.30
2023-05-13T20:48:56.272Z,4.03
2023-05-13T20:51:23.002Z,3.33
2023-05-13T20:53:49.523Z,4.37
2023-05-13T20:56:16.066Z,5.17
2023-05-13T20:58:42.658Z,5.60
2023-05-13T21:01:09.224Z,5.13
2023-05-13T21:03:35.832Z,4.83
2023-05-13T21:06:02.479Z,9.60
2023-05-13T21:08:29.000Z,6.13
2023-05-13T21:10:56.918Z,11.37
2023-05-13T21:13:23.457Z,9.47
2023-05-13T21:15:53.131Z,9.67
2023-05-13T21:18:19.607Z,8.50
2023-05-13T21:20:46.581Z,13.97
2023-05-13T21:23:13.081Z,9.30
2023-05-13T21:25:59.893Z,11.23
2023-05-13T21:28:26.392Z,7.33
2023-05-13T21:30:52.863Z,7.30
2023-05-13T21:33:19.320Z,10.73
2023-05-13T21:35:45.773Z,10.60
2023-05-13T21:38:12.773Z,9.90
2023-05-13T21:40:39.824Z,9.80
2023-05-13T21:43:06.264Z,8.87
2023-05-13T21:45:32.696Z,10.97
2023-05-13T21:47:59.190Z,10.70
2023-05-13T21:50:25.809Z,11.97
2023-05-13T21:52:52.307Z,14.67
2023-05-13T21:55:18.788Z,11.70
2023-05-13T21:57:45.256Z,14.53
2023-05-13T22:00:15.149Z,12.73
2023-05-13T22:02:50.795Z,12.03
2023-05-13T22:05:17.553Z,12.93
2023-05-13T22:07:44.039Z,11.07
2023-05-13T22:10:11.516Z,14.43
2023-05-13T22:12:37.984Z,13.90
2023-05-13T22:15:04.879Z,18.90
2023-05-13T22:17:31.488Z,16.43
2023-05-13T22:19:58.045Z,15.90
2023-05-13T22:22:24.588Z,18.77
2023-05-13T22:24:51.617Z,18.73
2023-05-13T22:27:18.101Z,18.10
2023-05-13T22:29:44.606Z,16.83
2023-05-13T22:32:11.212Z,18.97
2023-05-13T22:34:37.740Z,18.90
2023-05-13T22:37:04.394Z,20.80
2023-05-13T22:39:31.089Z,21.60
2023-05-13T22:41:57.591Z,18.90
2023-05-13T22:44:24.122Z,19.10
2023-05-13T22:46:52.559Z,26.40
2023-05-13T22:49:19.276Z,21.77
2023-05-13T22:51:47.734Z,22.20
2023-05-13T22:54:14.231Z,18.07
2023-05-13T22:56:40.701Z,17.50
2023-05-13T22:59:07.220Z,18.70
2023-05-13T23:01:33.863Z,22.10
2023-05-13T23:04:00.565Z,18.70
2023-05-13T23:06:27.111Z,17.47
2023-05-13T23:08:53.562Z,19.07
2023-05-13T23:11:20.099Z,21.70
2023-05-13T23:13:46.576Z,19.83
2023-05-13T23:16:13.173Z,16.50
2023-05-13T23:18:39.961Z,18.27
2023-05-13T23:21:08.966Z,17.50
2023-05-13T23:23:35.806Z,18.43
2023-05-13T23:26:04.181Z,17.90
2023-05-13T23:28:31.699Z,17.33
2023-05-13T23:30:58.231Z,16.20
2023-05-13T23:33:24.656Z,15.00
2023-05-13T23:35:56.195Z,15.73
2023-05-13T23:38:23.270Z,16.70
2023-05-13T23:40:49.969Z,16.60
2023-05-13T23:43:16.519Z,14.60
2023-05-13T23:45:43.129Z,13.97
2023-05-13T23:48:09.675Z,17.60
2023-05-13T23:50:36.162Z,16.30
2023-05-13T23:53:02.728Z,13.20
2023-05-13T23:55:29.187Z,15.50
2023-05-13T23:57:55.878Z,15.10
